Time;durP1;ratioP1;P1;durP2;ratioP2;P2;SDS_P1;SDS_P2;PMS_P1;PMS_P2;Temp;Humidity;BMP_temperature;BMP_pressure;BME280_temperature;BME280_humidity;BME280_pressure;Samples;Min_cycle;Max_cycle;Signal;HPM_P1;HPM_P2
2022/03/05 00:00:51;;;;;;;11.82;9.60;;;6.90;99.90;;;;;;5018123;28;20034;-61
2022/03/05 00:03:18;;;;;;;11.73;8.88;;;6.80;99.90;;;;;;5001143;28;20038;-61
2022/03/05 00:05:45;;;;;;;12.88;8.63;;;6.90;99.90;;;;;;5018727;28;20062;-61
2022/03/05 00:08:12;;;;;;;12.63;8.57;;;6.90;99.90;;;;;;4998250;28;20057;-60
2022/03/05 00:10:38;;;;;;;11.63;8.63;;;6.80;99.90;;;;;;4999621;28;20042;-60
2022/03/05 00:13:05;;;;;;;12.45;7.57;;;6.80;99.90;;;;;;5017987;28;20031;-59
2022/03/05 00:15:32;;;;;;;12.18;8.35;;;6.70;99.90;;;;;;5018185;28;20085;-59
2022/03/05 00:17:59;;;;;;;11.23;7.90;;;6.70;99.90;;;;;;5017763;28;20038;-59
2022/03/05 00:20:26;;;;;;;14.10;9.55;;;6.60;99.90;;;;;;5017381;28;20077;-60
2022/03/05 00:22:53;;;;;;;15.23;9.27;;;6.60;99.90;;;;;;5017624;28;20037;-60
2022/03/05 00:25:21;;;;;;;13.23;9.48;;;6.60;99.90;;;;;;5018245;28;20035;-59
2022/03/05 00:27:48;;;;;;;13.77;9.50;;;6.60;99.90;;;;;;5001271;28;20022;-60
2022/03/05 00:30:15;;;;;;;13.50;10.05;;;6.60;99.90;;;;;;5017680;28;20030;-60
2022/03/05 00:32:42;;;;;;;15.73;10.02;;;6.60;99.90;;;;;;5000832;28;20057;-61
2022/03/05 00:35:10;;;;;;;13.25;9.55;;;6.60;99.90;;;;;;5017731;28;20045;-60
2022/03/05 00:37:37;;;;;;;16.70;11.02;;;6.60;99.90;;;;;;5017758;28;20050;-60
2022/03/05 00:40:05;;;;;;;15.82;10.90;;;6.60;99.90;;;;;;5001271;28;20026;-60
2022/03/05 00:42:31;;;;;;;16.20;11.40;;;6.60;99.90;;;;;;4969098;28;20050;-60
2022/03/05 00:44:58;;;;;;;15.60;10.63;;;6.60;99.90;;;;;;5017484;28;20099;-60
2022/03/05 00:47:25;;;;;;;16.25;11.07;;;6.60;99.90;;;;;;5017902;28;20030;-60
2022/03/05 00:49:53;;;;;;;15.13;10.18;;;6.60;99.90;;;;;;5000341;28;20034;-60
2022/03/05 00:52:20;;;;;;;17.63;11.90;;;6.60;99.90;;;;;;4998075;28;20199;-60
2022/03/05 00:54:47;;;;;;;16.30;10.70;;;6.60;99.90;;;;;;5013088;28;20073;-60
2022/03/05 00:57:14;;;;;;;17.17;11.13;;;6.60;99.90;;;;;;5017328;28;20034;-61
2022/03/05 00:59:41;;;;;;;18.23;10.02;;;6.60;99.90;;;;;;5000590;28;20058;-60
2022/03/05 01:02:08;;;;;;;18.88;11.25;;;6.60;99.90;;;;;;4984767;28;20038;-62
2022/03/05 01:04:35;;;;;;;14.35;10.02;;;6.60;99.90;;;;;;5000050;28;20040;-61
2022/03/05 01:07:03;;;;;;;16.50;11.00;;;6.50;99.90;;;;;;5015515;28;20057;-61
2022/03/05 01:09:30;;;;;;;18.35;12.48;;;6.50;99.90;;;;;;5017113;28;20060;-60
2022/03/05 01:11:56;;;;;;;16.48;11.32;;;6.50;99.90;;;;;;5016962;28;20041;-61
2022/03/05 01:14:24;;;;;;;15.35;11.25;;;6.50;99.90;;;;;;5016961;28;20054;-60
2022/03/05 01:16:50;;;;;;;16.58;10.93;;;6.50;99.90;;;;;;4989781;28;20053;-60
2022/03/05 01:19:17;;;;;;;16.48;10.82;;;6.50;99.90;;;;;;5016684;28;20023;-60
2022/03/05 01:21:44;;;;;;;14.32;10.52;;;6.30;99.90;;;;;;5016005;28;20042;-60
2022/03/05 01:24:11;;;;;;;13.63;10.02;;;6.30;99.90;;;;;;5016640;28;20034;-59
2022/03/05 01:26:38;;;;;;;12.77;9.02;;;6.30;99.90;;;;;;5000348;28;20030;-60
2022/03/05 01:29:04;;;;;;;12.02;8.25;;;6.40;99.90;;;;;;5016215;28;20039;-60
2022/03/05 01:31:31;;;;;;;12.65;9.02;;;6.30;99.90;;;;;;5016314;28;20165;-59
2022/03/05 01:33:58;;;;;;;13.20;9.57;;;6.30;99.90;;;;;;5016741;28;20094;-60
2022/03/05 01:36:25;;;;;;;17.95;10.20;;;6.40;99.90;;;;;;5016690;28;20077;-60
2022/03/05 01:38:52;;;;;;;13.27;9.52;;;6.30;99.90;;;;;;5016693;28;20038;-59
2022/03/05 01:41:19;;;;;;;16.02;10.05;;;6.30;99.90;;;;;;4999799;28;20071;-60
2022/03/05 01:43:52;;;;;;;15.00;9.70;;;6.30;99.90;;;;;;5016491;28;20027;-59
2022/03/05 01:46:35;;;;;;;15.15;9.02;;;6.20;99.90;;;;;;5016285;28;20039;-60
2022/03/05 01:49:07;;;;;;;12.88;9.73;;;6.20;99.90;;;;;;4999539;28;20030;-60
2022/03/05 01:51:34;;;;;;;10.93;8.38;;;6.20;99.90;;;;;;5016299;28;20081;-60
2022/03/05 01:54:00;;;;;;;12.75;8.80;;;6.20;99.90;;;;;;4999836;28;20026;-60
2022/03/05 01:56:27;;;;;;;12.27;8.35;;;6.20;99.90;;;;;;4999636;28;20038;-60
2022/03/05 01:58:54;;;;;;;9.90;7.03;;;6.10;99.90;;;;;;4983914;28;20065;-60
2022/03/05 02:01:22;;;;;;;9.55;7.13;;;6.10;99.90;;;;;;5016136;28;20077;-60
2022/03/05 02:03:52;;;;;;;10.52;7.50;;;6.10;99.90;;;;;;5016087;28;20035;-61
2022/03/05 02:06:19;;;;;;;7.40;5.53;;;6.10;99.90;;;;;;4999504;28;20050;-60
2022/03/05 02:08:47;;;;;;;7.88;5.63;;;6.10;99.90;;;;;;5000099;28;20046;-61
2022/03/05 02:11:13;;;;;;;7.32;5.25;;;6.10;99.90;;;;;;5016339;28;20033;-61
2022/03/05 02:13:41;;;;;;;5.20;3.85;;;6.00;99.90;;;;;;5015778;28;20037;-60
2022/03/05 02:16:08;;;;;;;7.50;4.88;;;6.00;99.90;;;;;;4999831;28;20030;-60
2022/03/05 02:18:35;;;;;;;5.72;4.28;;;6.00;99.90;;;;;;4999858;28;20057;-60
2022/03/05 02:21:02;;;;;;;6.22;4.07;;;6.00;99.90;;;;;;4999802;28;20042;-60
2022/03/05 02:23:29;;;;;;;5.95;4.43;;;5.90;99.90;;;;;;4994455;28;20047;-60
2022/03/05 02:25:57;;;;;;;7.53;4.40;;;6.00;99.90;;;;;;4983409;28;20031;-61
2022/03/05 02:28:25;;;;;;;5.13;3.50;;;5.90;99.90;;;;;;5002994;28;20034;-60
2022/03/05 02:30:51;;;;;;;4.60;3.28;;;5.90;99.90;;;;;;5003835;28;20065;-60
2022/03/05 02:33:18;;;;;;;3.70;2.63;;;5.90;99.90;;;;;;5019526;28;20073;-60
2022/03/05 02:35:45;;;;;;;7.30;3.42;;;5.90;99.90;;;;;;5020432;28;20077;-59
2022/03/05 02:38:16;;;;;;;5.25;3.28;;;5.90;99.90;;;;;;5019880;28;20057;-60
2022/03/05 02:40:43;;;;;;;4.75;3.22;;;5.90;99.90;;;;;;4984128;28;20050;-60
2022/03/05 02:43:10;;;;;;;4.82;3.47;;;5.90;99.90;;;;;;4996677;28;20033;-59
2022/03/05 02:45:37;;;;;;;4.32;3.15;;;5.90;99.90;;;;;;5020121;28;20050;-60
2022/03/05 02:48:07;;;;;;;5.57;3.58;;;6.00;99.90;;;;;;5003114;28;20065;-60
2022/03/05 02:50:33;;;;;;;7.13;2.97;;;5.90;99.90;;;;;;5020015;28;20030;-59
2022/03/05 02:53:00;;;;;;;4.10;3.03;;;6.00;99.90;;;;;;5019589;28;20026;-60
2022/03/05 02:55:27;;;;;;;4.70;3.50;;;5.90;99.90;;;;;;5020016;28;20046;-60
2022/03/05 02:57:54;;;;;;;6.55;2.92;;;5.90;99.90;;;;;;4986656;28;20069;-59
2022/03/05 03:00:20;;;;;;;5.93;3.10;;;5.90;99.90;;;;;;5019786;28;20026;-59
2022/03/05 03:02:49;;;;;;;4.28;2.95;;;6.00;99.90;;;;;;4986982;28;20035;-59
2022/03/05 03:05:17;;;;;;;7.20;3.90;;;5.90;99.90;;;;;;5003187;28;20110;-59
2022/03/05 03:07:44;;;;;;;4.45;3.25;;;5.90;99.90;;;;;;5002889;28;20061;-59
2022/03/05 03:10:11;;;;;;;6.65;3.80;;;5.80;99.90;;;;;;4983472;28;20295;-60
2022/03/05 03:12:38;;;;;;;4.47;3.50;;;5.80;99.90;;;;;;5019576;28;20065;-59
2022/03/05 03:15:06;;;;;;;8.27;4.45;;;5.90;99.90;;;;;;5019405;28;20026;-61
2022/03/05 03:17:43;;;;;;;5.82;4.10;;;5.90;99.90;;;;;;5002904;28;20061;-59
2022/03/05 03:20:11;;;;;;;6.95;4.10;;;6.00;99.90;;;;;;5002098;28;20046;-60
2022/03/05 03:22:38;;;;;;;5.75;3.90;;;6.00;99.90;;;;;;5002659;28;20050;-59
2022/03/05 03:25:05;;;;;;;7.07;5.28;;;5.90;99.90;;;;;;5019266;28;20034;-61
2022/03/05 03:27:32;;;;;;;7.03;4.32;;;5.80;99.90;;;;;;5002774;28;20062;-60
2022/03/05 03:29:58;;;;;;;8.05;5.20;;;5.80;99.90;;;;;;5018813;28;20026;-60
2022/03/05 03:32:25;;;;;;;9.00;6.18;;;5.80;99.90;;;;;;5018934;28;20042;-60
2022/03/05 03:34:52;;;;;;;7.35;5.55;;;5.80;99.90;;;;;;5018902;28;20057;-60
2022/03/05 03:37:19;;;;;;;8.70;5.32;;;5.90;99.90;;;;;;5002333;28;20036;-59
2022/03/05 03:39:46;;;;;;;7.82;5.45;;;5.90;99.90;;;;;;5019105;28;20033;-60
2022/03/05 03:42:13;;;;;;;7.32;5.22;;;6.00;99.90;;;;;;5018885;28;20038;-60
2022/03/05 03:44:41;;;;;;;9.00;5.20;;;6.00;99.90;;;;;;5002264;28;20062;-60
2022/03/05 03:47:09;;;;;;;11.40;6.25;;;6.00;99.90;;;;;;5018812;28;20034;-60
2022/03/05 03:49:36;;;;;;;9.45;6.03;;;6.00;99.90;;;;;;4970198;28;20026;-61
2022/03/05 03:52:03;;;;;;;9.10;6.30;;;5.90;99.90;;;;;;5002006;28;20039;-61
2022/03/05 03:54:30;;;;;;;9.45;6.15;;;5.90;99.90;;;;;;5002041;28;20023;-60
2022/03/05 03:56:57;;;;;;;11.43;6.40;;;6.00;99.90;;;;;;5018903;28;20030;-59
2022/03/05 03:59:23;;;;;;;7.28;5.38;;;6.00;99.90;;;;;;5018627;28;20030;-59
2022/03/05 04:01:50;;;;;;;11.45;6.88;;;6.00;99.90;;;;;;4985563;28;20062;-60
2022/03/05 04:04:17;;;;;;;9.55;6.18;;;6.10;99.90;;;;;;5009147;28;20042;-59
2022/03/05 04:09:29;;;;;;;6.88;5.20;;;6.10;99.90;;;;;;5018173;28;20031;-58
2022/03/05 04:11:56;;;;;;;8.90;6.75;;;6.00;99.90;;;;;;5018081;28;20089;-59
2022/03/05 04:14:23;;;;;;;8.68;6.07;;;6.00;99.90;;;;;;5018270;28;20041;-60
2022/03/05 04:16:50;;;;;;;8.95;6.55;;;6.00;99.90;;;;;;4990268;28;20046;-60
2022/03/05 04:19:17;;;;;;;8.43;5.93;;;6.00;99.90;;;;;;4985433;28;20026;-60
2022/03/05 04:21:43;;;;;;;8.80;5.65;;;6.00;99.90;;;;;;5001219;28;20066;-60
2022/03/05 04:24:10;;;;;;;8.63;5.35;;;6.00;99.90;;;;;;5017813;28;20031;-60
2022/03/05 04:26:38;;;;;;;8.15;5.93;;;6.00;99.90;;;;;;5001306;28;20026;-60
2022/03/05 04:29:04;;;;;;;8.50;5.45;;;5.90;99.90;;;;;;5018329;28;20030;-59
2022/03/05 04:31:31;;;;;;;7.80;5.45;;;6.00;99.90;;;;;;5018054;28;20034;-62
2022/03/05 04:33:58;;;;;;;5.50;4.65;;;6.00;99.90;;;;;;5018070;28;20054;-60
2022/03/05 04:36:25;;;;;;;7.97;5.80;;;6.00;99.90;;;;;;5017771;28;20041;-60
2022/03/05 04:38:52;;;;;;;7.45;5.22;;;6.00;99.90;;;;;;5017936;28;20031;-61
2022/03/05 04:41:19;;;;;;;6.72;4.93;;;6.10;99.90;;;;;;4997909;28;20074;-60
2022/03/05 04:43:45;;;;;;;7.78;4.22;;;6.10;99.90;;;;;;5018065;28;20320;-60
2022/03/05 04:46:12;;;;;;;7.45;4.93;;;6.00;99.90;;;;;;5017578;28;20046;-59
2022/03/05 04:48:39;;;;;;;11.77;5.20;;;6.00;99.90;;;;;;5016566;28;20055;-60
2022/03/05 04:51:06;;;;;;;6.10;4.15;;;6.00;99.90;;;;;;5001045;28;20034;-60
2022/03/05 04:53:33;;;;;;;5.22;4.05;;;6.00;99.90;;;;;;5017562;28;20030;-60
2022/03/05 04:55:59;;;;;;;7.43;3.92;;;6.00;99.90;;;;;;5017076;28;20034;-60
2022/03/05 04:58:26;;;;;;;6.03;4.57;;;6.10;99.90;;;;;;5017282;28;20038;-60
2022/03/05 05:00:53;;;;;;;7.68;4.00;;;6.10;99.90;;;;;;5017703;28;20034;-60
2022/03/05 05:03:20;;;;;;;6.45;3.95;;;6.10;99.90;;;;;;5017031;28;20030;-60
2022/03/05 05:05:47;;;;;;;6.80;3.90;;;6.10;99.90;;;;;;5017735;28;20033;-60
2022/03/05 05:08:13;;;;;;;4.47;3.08;;;6.10;99.90;;;;;;5017226;28;20050;-60
2022/03/05 05:10:40;;;;;;;5.18;3.67;;;6.10;99.90;;;;;;5017301;28;20041;-59
2022/03/05 05:13:07;;;;;;;5.82;3.47;;;6.10;99.90;;;;;;5000398;28;20026;-60
2022/03/05 05:15:34;;;;;;;6.47;3.78;;;6.10;99.90;;;;;;5000686;28;20026;-60
2022/03/05 05:18:01;;;;;;;4.63;3.28;;;6.00;99.90;;;;;;5017068;28;20026;-60
2022/03/05 05:20:29;;;;;;;6.40;3.67;;;6.10;99.90;;;;;;5000242;28;20058;-60
2022/03/05 05:22:56;;;;;;;8.35;3.33;;;6.10;99.90;;;;;;5016892;28;20050;-61
2022/03/05 05:25:23;;;;;;;7.40;3.45;;;6.20;99.90;;;;;;5000472;28;20088;-60
2022/03/05 05:27:50;;;;;;;6.10;2.72;;;6.10;99.90;;;;;;5016495;28;20058;-58
2022/03/05 05:30:16;;;;;;;4.82;3.35;;;6.10;99.90;;;;;;5000053;28;20097;-61
2022/03/05 05:32:43;;;;;;;8.18;3.45;;;6.10;99.90;;;;;;5016737;28;20030;-60
2022/03/05 05:35:10;;;;;;;3.47;2.90;;;6.10;99.90;;;;;;5016157;28;20038;-61
2022/03/05 05:37:37;;;;;;;5.38;2.97;;;6.10;99.90;;;;;;5016705;28;20066;-60
2022/03/05 05:40:04;;;;;;;5.45;3.45;;;6.10;99.90;;;;;;5000225;28;20046;-60
2022/03/05 05:42:31;;;;;;;7.00;3.20;;;6.10;99.90;;;;;;5017071;28;20041;-60
2022/03/05 05:44:57;;;;;;;6.60;2.92;;;6.10;99.90;;;;;;5016777;28;20080;-61
2022/03/05 05:47:24;;;;;;;4.63;3.22;;;6.20;99.90;;;;;;5016484;28;20065;-61
2022/03/05 05:49:51;;;;;;;4.50;2.97;;;6.10;99.90;;;;;;5016371;28;20030;-61
2022/03/05 05:52:18;;;;;;;3.40;2.92;;;6.10;99.90;;;;;;5000189;28;20038;-61
2022/03/05 05:54:45;;;;;;;7.15;3.17;;;6.00;99.90;;;;;;5016683;28;20034;-60
2022/03/05 05:57:12;;;;;;;10.00;5.65;;;6.00;99.90;;;;;;4999994;28;20034;-60
2022/03/05 05:59:38;;;;;;;5.55;2.90;;;6.10;99.90;;;;;;5015662;28;20030;-60
2022/03/05 06:02:06;;;;;;;6.82;3.63;;;6.10;99.90;;;;;;5016872;28;20030;-61
2022/03/05 06:04:33;;;;;;;4.25;2.63;;;6.10;99.90;;;;;;5016350;28;20062;-60
2022/03/05 06:07:00;;;;;;;7.45;2.92;;;6.10;99.90;;;;;;5016514;28;20085;-61
2022/03/05 06:09:27;;;;;;;4.07;2.75;;;6.10;99.90;;;;;;5016452;28;20034;-60
2022/03/05 06:11:54;;;;;;;4.45;2.70;;;6.20;99.90;;;;;;5016550;28;20058;-61
2022/03/05 06:14:20;;;;;;;5.32;2.67;;;6.10;99.90;;;;;;5015912;28;20057;-61
2022/03/05 06:16:47;;;;;;;5.88;2.90;;;6.20;99.90;;;;;;5016535;28;20044;-60
2022/03/05 06:19:14;;;;;;;4.10;2.92;;;6.10;99.90;;;;;;5015937;28;20069;-61
2022/03/05 06:21:41;;;;;;;8.63;3.25;;;6.10;99.90;;;;;;5016315;28;20065;-61
2022/03/05 06:24:08;;;;;;;7.47;2.72;;;6.10;99.90;;;;;;4983471;28;20065;-61
2022/03/05 06:26:35;;;;;;;4.97;2.75;;;6.10;99.90;;;;;;4998582;28;20031;-60
2022/03/05 06:29:04;;;;;;;5.45;2.70;;;6.10;99.90;;;;;;4999721;28;20080;-60
2022/03/05 06:31:30;;;;;;;4.25;2.35;;;6.10;99.90;;;;;;5015956;28;20030;-61
2022/03/05 06:33:57;;;;;;;3.92;2.92;;;6.00;99.90;;;;;;5016189;28;20030;-60
2022/03/05 06:36:24;;;;;;;6.18;3.05;;;6.10;99.90;;;;;;5016084;28;20030;-61
2022/03/05 06:38:51;;;;;;;10.43;3.33;;;6.10;99.90;;;;;;5002566;28;20049;-60
2022/03/05 06:41:18;;;;;;;5.75;2.28;;;6.10;99.90;;;;;;5015758;28;20027;-60
2022/03/05 06:43:45;;;;;;;6.80;2.90;;;6.10;99.90;;;;;;5018547;28;20026;-60
2022/03/05 06:46:11;;;;;;;3.58;2.47;;;6.00;99.90;;;;;;5018292;28;20052;-61
2022/03/05 06:48:38;;;;;;;2.90;2.08;;;6.00;99.90;;;;;;5018792;28;20038;-60
2022/03/05 06:51:05;;;;;;;6.30;2.60;;;6.00;99.90;;;;;;5005519;28;20077;-60
2022/03/05 06:53:32;;;;;;;4.28;2.60;;;6.00;99.90;;;;;;5006837;28;20099;-60
2022/03/05 06:55:59;;;;;;;4.47;2.40;;;6.00;99.90;;;;;;5015617;28;20054;-59
2022/03/05 06:58:25;;;;;;;4.72;2.10;;;6.00;99.90;;;;;;5019027;28;20042;-60
2022/03/05 07:00:52;;;;;;;5.47;2.33;;;6.00;99.90;;;;;;5015710;28;20034;-60
2022/03/05 07:03:19;;;;;;;5.20;2.30;;;6.00;99.90;;;;;;5015423;28;20090;-59
2022/03/05 07:05:46;;;;;;;4.07;2.05;;;6.00;99.90;;;;;;5015375;28;20050;-60
2022/03/05 07:08:13;;;;;;;4.65;3.40;;;6.10;99.90;;;;;;5015745;28;20022;-60
2022/03/05 07:10:40;;;;;;;5.70;2.47;;;6.10;99.90;;;;;;5016079;28;20034;-60
2022/03/05 07:13:07;;;;;;;11.02;2.53;;;6.00;99.90;;;;;;5001625;28;20046;-61
2022/03/05 07:15:33;;;;;;;5.28;2.35;;;6.00;99.90;;;;;;5019623;28;20041;-60
2022/03/05 07:18:00;;;;;;;6.35;2.92;;;6.00;99.90;;;;;;5018727;28;20038;-59
2022/03/05 07:20:27;;;;;;;4.63;2.47;;;6.00;99.90;;;;;;5018827;28;20042;-59
2022/03/05 07:22:54;;;;;;;3.03;2.47;;;6.20;99.90;;;;;;5018951;28;20023;-59
2022/03/05 07:25:21;;;;;;;8.02;2.80;;;6.00;99.90;;;;;;5019281;28;20034;-60
2022/03/05 07:27:47;;;;;;;8.43;2.40;;;6.00;99.90;;;;;;4998756;28;20035;-60
2022/03/05 07:30:14;;;;;;;7.90;2.53;;;6.00;99.90;;;;;;5001444;28;20097;-60
2022/03/05 07:32:41;;;;;;;6.25;2.20;;;6.00;99.90;;;;;;5018487;28;20065;-59
2022/03/05 07:35:08;;;;;;;8.02;2.20;;;6.00;99.90;;;;;;5010235;28;20065;-60
2022/03/05 07:37:35;;;;;;;3.92;2.90;;;6.00;99.90;;;;;;5024343;28;20056;-60
2022/03/05 07:40:02;;;;;;;4.28;2.55;;;6.00;99.90;;;;;;5009728;28;20073;-60
2022/03/05 07:42:30;;;;;;;6.05;2.55;;;6.10;99.90;;;;;;4699478;28;10000853;-60
2022/03/05 07:44:57;;;;;;;4.55;2.75;;;6.10;99.90;;;;;;5018079;28;20237;-61
2022/03/05 07:47:24;;;;;;;9.45;2.92;;;6.10;99.90;;;;;;5005572;28;20042;-61
2022/03/05 07:49:51;;;;;;;5.43;2.60;;;6.10;99.90;;;;;;5015539;28;20158;-60
2022/03/05 07:52:17;;;;;;;6.88;4.35;;;6.00;99.90;;;;;;5015435;28;20038;-59
2022/03/05 07:54:44;;;;;;;7.20;3.58;;;6.10;99.90;;;;;;5015212;28;20026;-59
2022/03/05 07:57:11;;;;;;;8.15;3.67;;;6.00;99.90;;;;;;5015457;28;20046;-60
2022/03/05 07:59:38;;;;;;;6.53;3.03;;;6.00;99.90;;;;;;5005050;28;20093;-59
2022/03/05 08:02:05;;;;;;;9.05;3.67;;;5.90;99.90;;;;;;5018973;28;20048;-61
2022/03/05 08:04:32;;;;;;;10.35;3.22;;;5.90;99.90;;;;;;5004724;28;20045;-59
2022/03/05 08:07:19;;;;;;;6.03;3.83;;;5.90;99.90;;;;;;5005873;28;20030;-59
2022/03/05 08:09:46;;;;;;;6.80;3.20;;;6.00;99.90;;;;;;5002688;28;20043;-59
2022/03/05 08:12:13;;;;;;;3.67;3.03;;;6.00;99.90;;;;;;5016216;28;20038;-59
2022/03/05 08:14:41;;;;;;;8.10;3.33;;;6.10;99.90;;;;;;5014704;28;20055;-59
2022/03/05 08:17:08;;;;;;;5.85;3.60;;;6.10;99.90;;;;;;4995680;28;20090;-59
2022/03/05 08:19:35;;;;;;;8.35;3.30;;;6.00;99.90;;;;;;4993271;28;20101;-58
2022/03/05 08:22:19;;;;;;;5.95;3.55;;;6.00;99.90;;;;;;4995273;28;20045;-59
2022/03/05 08:24:46;;;;;;;6.65;2.95;;;6.10;99.90;;;;;;5010527;28;20059;-60
2022/03/05 08:27:12;;;;;;;4.30;3.70;;;6.10;99.90;;;;;;5015553;28;20042;-65
2022/03/05 08:29:39;;;;;;;5.82;3.25;;;6.00;99.90;;;;;;5015349;28;20038;-60
2022/03/05 08:32:09;;;;;;;5.93;2.85;;;5.80;99.90;;;;;;5015147;28;20054;-61
2022/03/05 08:34:36;;;;;;;5.63;2.80;;;6.10;99.90;;;;;;4998054;28;20027;-60
2022/03/05 08:37:03;;;;;;;6.68;2.63;;;6.10;99.90;;;;;;5021029;28;20029;-60
2022/03/05 08:39:30;;;;;;;3.88;2.33;;;6.10;99.90;;;;;;4999879;28;20101;-58
2022/03/05 08:41:57;;;;;;;4.28;2.75;;;6.20;99.90;;;;;;4997453;28;20046;-61
2022/03/05 08:44:24;;;;;;;4.80;2.78;;;6.20;99.90;;;;;;5006086;28;20041;-59
2022/03/05 08:46:50;;;;;;;4.55;2.25;;;6.20;99.90;;;;;;5017043;28;20077;-64
2022/03/05 08:49:17;;;;;;;7.47;3.22;;;6.20;99.90;;;;;;5013822;28;20065;-59
2022/03/05 08:51:44;;;;;;;6.32;2.20;;;6.20;99.90;;;;;;5014054;28;20061;-60
2022/03/05 08:54:11;;;;;;;2.67;2.05;;;6.30;99.90;;;;;;5002606;28;20042;-59
2022/03/05 08:56:38;;;;;;;8.75;2.72;;;6.30;99.90;;;;;;4995341;28;20054;-60
2022/03/05 08:59:07;;;;;;;3.50;2.25;;;6.30;99.90;;;;;;4992966;28;20071;-60
2022/03/05 09:01:34;;;;;;;4.20;2.17;;;6.30;99.90;;;;;;5013995;28;20030;-61
2022/03/05 09:04:01;;;;;;;6.82;3.40;;;6.30;99.90;;;;;;5014082;28;20030;-61
2022/03/05 09:06:28;;;;;;;6.72;2.50;;;6.30;99.90;;;;;;5013869;28;20034;-61
2022/03/05 09:08:59;;;;;;;5.43;2.35;;;6.30;99.90;;;;;;5014864;28;20030;-60
2022/03/05 09:11:26;;;;;;;9.27;2.97;;;6.30;99.90;;;;;;4981698;28;20026;-62
2022/03/05 09:13:53;;;;;;;6.00;2.65;;;6.30;99.90;;;;;;4984206;28;20034;-61
2022/03/05 09:16:20;;;;;;;4.28;2.50;;;6.30;99.90;;;;;;5012910;28;20042;-60
2022/03/05 09:18:47;;;;;;;5.75;2.88;;;6.40;99.90;;;;;;4995660;28;20035;-60
2022/03/05 09:21:15;;;;;;;2.42;2.22;;;6.40;99.90;;;;;;5013188;28;20060;-61
2022/03/05 09:23:42;;;;;;;9.00;3.28;;;6.40;99.90;;;;;;5014083;28;20033;-60
2022/03/05 09:26:09;;;;;;;5.78;2.58;;;6.40;99.90;;;;;;4996833;28;20072;-61
2022/03/05 09:28:36;;;;;;;5.10;3.00;;;6.40;99.90;;;;;;4997697;28;20034;-61
2022/03/05 09:31:03;;;;;;;4.45;3.17;;;6.40;99.90;;;;;;4996742;28;20037;-62
2022/03/05 09:33:30;;;;;;;10.25;3.88;;;6.40;99.90;;;;;;5012489;28;20042;-61
2022/03/05 09:35:58;;;;;;;11.13;2.80;;;6.40;99.90;;;;;;5012941;28;20034;-61
2022/03/05 09:38:25;;;;;;;5.65;2.92;;;6.50;99.90;;;;;;4996777;28;20038;-62
2022/03/05 09:40:52;;;;;;;4.93;2.45;;;6.50;99.90;;;;;;5013549;28;20077;-61
2022/03/05 09:43:19;;;;;;;8.98;2.70;;;6.50;99.90;;;;;;5013328;28;20034;-62
2022/03/05 09:45:46;;;;;;;7.65;2.22;;;6.50;99.90;;;;;;4965006;28;20061;-62
2022/03/05 09:48:15;;;;;;;6.53;2.70;;;6.50;99.90;;;;;;5014322;28;20038;-60
2022/03/05 09:50:42;;;;;;;2.80;1.83;;;6.60;99.90;;;;;;5015037;28;20073;-61
2022/03/05 09:53:09;;;;;;;5.57;2.33;;;6.50;99.90;;;;;;4998152;28;20090;-60
2022/03/05 09:55:36;;;;;;;8.65;1.95;;;6.50;99.90;;;;;;4982373;28;20034;-62
2022/03/05 09:58:23;;;;;;;2.65;1.65;;;6.60;99.90;;;;;;4987081;28;20050;-63
2022/03/05 10:00:50;;;;;;;4.63;2.25;;;6.50;99.90;;;;;;4998283;28;20112;-60
2022/03/05 10:03:18;;;;;;;6.75;2.22;;;6.60;99.90;;;;;;4981772;28;20113;-61
2022/03/05 10:05:45;;;;;;;6.55;2.70;;;6.60;99.90;;;;;;5014848;28;20042;-61
2022/03/05 10:08:15;;;;;;;5.40;2.72;;;6.60;99.90;;;;;;4998070;28;20069;-61
2022/03/05 10:10:43;;;;;;;4.85;2.03;;;6.70;99.90;;;;;;4968147;28;20046;-61
2022/03/05 10:13:22;;;;;;;7.82;2.13;;;6.70;99.90;;;;;;4947675;28;20026;-62
2022/03/05 10:15:51;;;;;;;6.30;2.67;;;6.70;99.90;;;;;;4997603;28;20065;-62
2022/03/05 10:18:25;;;;;;;5.57;2.42;;;6.70;99.90;;;;;;4991340;28;20030;-61
2022/03/05 10:20:52;;;;;;;7.00;2.95;;;6.60;99.90;;;;;;4997998;28;20062;-61
2022/03/05 10:23:20;;;;;;;4.00;2.75;;;6.60;99.90;;;;;;5013804;28;20030;-60
2022/03/05 10:25:51;;;;;;;5.68;2.72;;;6.60;99.90;;;;;;5004942;28;20042;-61
2022/03/05 10:28:22;;;;;;;5.95;3.13;;;6.60;99.90;;;;;;4955303;28;20229;-62
2022/03/05 10:31:02;;;;;;;3.75;2.72;;;6.60;99.90;;;;;;4965217;28;20261;-61
2022/03/05 10:33:32;;;;;;;2.97;2.53;;;6.60;99.90;;;;;;5001550;28;20053;-62
2022/03/05 10:36:00;;;;;;;6.45;2.70;;;6.60;99.90;;;;;;4983695;28;20035;-62
2022/03/05 10:38:49;;;;;;;4.85;2.60;;;6.60;99.90;;;;;;5013644;28;20126;-61
2022/03/05 10:41:32;;;;;;;11.52;3.53;;;6.50;99.90;;;;;;5013414;28;20054;-62
2022/03/05 10:44:06;;;;;;;2.67;2.42;;;6.50;99.90;;;;;;5013161;28;20050;-61
2022/03/05 10:47:00;;;;;;;3.83;2.67;;;6.50;99.90;;;;;;5019888;28;20042;-61
2022/03/05 10:49:36;;;;;;;6.78;2.88;;;6.50;99.90;;;;;;4996591;28;20034;-60
2022/03/05 10:52:02;;;;;;;6.63;3.28;;;6.50;99.90;;;;;;5002081;28;20038;-61
2022/03/05 10:54:37;;;;;;;4.65;2.75;;;6.50;99.90;;;;;;5017239;28;20049;-61
2022/03/05 10:57:18;;;;;;;7.80;2.25;;;6.50;99.90;;;;;;5001015;28;20065;-60
2022/03/05 10:59:52;;;;;;;6.55;2.42;;;6.50;99.90;;;;;;5027338;28;20068;-60
2022/03/05 11:02:20;;;;;;;2.60;2.13;;;6.40;99.90;;;;;;5019704;28;20214;-61
2022/03/05 11:04:47;;;;;;;11.10;2.22;;;6.40;99.90;;;;;;5000866;28;20077;-60
2022/03/05 11:07:16;;;;;;;7.45;2.08;;;6.50;99.90;;;;;;5017746;28;20038;-60
2022/03/05 11:09:43;;;;;;;7.80;2.13;;;6.60;99.90;;;;;;5017348;28;20098;-61
2022/03/05 11:12:18;;;;;;;4.80;2.40;;;6.60;99.90;;;;;;5002068;28;20030;-61
2022/03/05 11:14:49;;;;;;;11.00;2.28;;;6.60;99.90;;;;;;5000430;28;20049;-63
2022/03/05 11:17:15;;;;;;;4.10;1.98;;;6.60;99.90;;;;;;5017794;28;20066;-63
2022/03/05 11:19:43;;;;;;;3.50;2.22;;;6.60;99.90;;;;;;5030254;28;20038;-61
2022/03/05 11:22:11;;;;;;;6.72;3.03;;;6.70;99.90;;;;;;5026299;28;20042;-61
2022/03/05 11:24:39;;;;;;;7.80;2.28;;;6.70;99.90;;;;;;4984662;28;20042;-60
2022/03/05 11:27:05;;;;;;;5.00;2.05;;;6.70;99.90;;;;;;5005752;28;20043;-61
2022/03/05 11:29:57;;;;;;;3.97;2.53;;;6.70;99.90;;;;;;5017086;28;20054;-61
2022/03/05 11:32:32;;;;;;;3.63;1.80;;;6.60;99.90;;;;;;5006399;28;20085;-62
2022/03/05 11:34:59;;;;;;;6.32;2.53;;;6.60;99.90;;;;;;5016680;28;20081;-61
2022/03/05 11:37:32;;;;;;;8.00;2.42;;;6.70;99.90;;;;;;5021227;28;20031;-60
2022/03/05 11:40:04;;;;;;;4.40;2.08;;;6.70;99.90;;;;;;5031973;28;20038;-60
2022/03/05 11:42:32;;;;;;;7.15;2.75;;;6.70;99.90;;;;;;4999856;28;20053;-60
2022/03/05 11:45:02;;;;;;;3.33;2.60;;;6.70;99.90;;;;;;4991773;28;20061;-60
2022/03/05 11:47:33;;;;;;;4.75;2.40;;;6.70;99.90;;;;;;5017643;28;20085;-60
2022/03/05 11:50:00;;;;;;;4.45;3.42;;;6.70;99.90;;;;;;5016417;28;20050;-61
2022/03/05 11:52:39;;;;;;;3.72;2.20;;;6.70;99.90;;;;;;5015674;28;20093;-61
2022/03/05 11:55:16;;;;;;;3.85;2.55;;;6.80;99.90;;;;;;5016859;28;20050;-60
2022/03/05 11:57:52;;;;;;;4.38;2.30;;;6.80;99.90;;;;;;4999125;28;20038;-61
2022/03/05 12:00:29;;;;;;;4.07;2.55;;;6.80;99.90;;;;;;5016189;28;20085;-61
2022/03/05 12:03:03;;;;;;;5.15;2.65;;;6.80;99.90;;;;;;5010716;28;20207;-61
2022/03/05 12:05:40;;;;;;;6.60;2.63;;;6.80;99.90;;;;;;5017816;28;20046;-62
2022/03/05 12:08:24;;;;;;;4.07;2.42;;;6.80;99.90;;;;;;5012167;28;20039;-62
2022/03/05 12:11:10;;;;;;;6.07;2.57;;;6.90;99.90;;;;;;4999108;28;20046;-60
2022/03/05 12:13:43;;;;;;;3.97;1.75;;;6.80;99.90;;;;;;5016216;28;20034;-61
2022/03/05 12:16:25;;;;;;;6.28;2.20;;;6.80;99.90;;;;;;4983375;28;20029;-62
2022/03/05 12:18:53;;;;;;;7.50;2.25;;;6.80;99.90;;;;;;5024297;28;20038;-61
2022/03/05 12:21:23;;;;;;;5.57;2.30;;;6.90;99.90;;;;;;5015901;28;20042;-61
2022/03/05 12:23:50;;;;;;;6.97;2.28;;;6.90;99.90;;;;;;5016031;28;20038;-61
2022/03/05 12:26:17;;;;;;;4.00;2.17;;;6.90;99.90;;;;;;5016314;28;20035;-61
2022/03/05 12:28:44;;;;;;;5.18;2.40;;;6.90;99.90;;;;;;4979962;28;20089;-61
2022/03/05 12:31:18;;;;;;;2.72;2.10;;;7.00;99.90;;;;;;5013277;28;20030;-61
2022/03/05 12:33:46;;;;;;;;;;;6.90;99.90;;;;;;4999020;28;20062;-61
2022/03/05 12:36:20;;;;;;;9.87;2.93;;;6.80;99.90;;;;;;4984368;28;19910;-61
2022/03/05 12:38:54;;;;;;;7.55;2.47;;;6.90;99.90;;;;;;4998200;28;20049;-61
2022/03/05 12:41:23;;;;;;;3.78;3.35;;;6.80;99.90;;;;;;5021067;28;20065;-64
2022/03/05 12:43:50;;;;;;;4.97;2.30;;;6.70;99.90;;;;;;5021243;28;20049;-61
2022/03/05 12:46:16;;;;;;;4.25;2.30;;;6.80;99.90;;;;;;5016083;28;20038;-62
2022/03/05 12:48:43;;;;;;;5.18;2.85;;;6.70;99.90;;;;;;5015569;28;20041;-62
2022/03/05 12:51:10;;;;;;;3.80;2.72;;;6.70;99.90;;;;;;5016048;28;20038;-61
2022/03/05 12:53:37;;;;;;;4.40;2.60;;;6.70;99.90;;;;;;5025694;28;20081;-61
2022/03/05 12:56:04;;;;;;;6.32;3.47;;;6.70;99.90;;;;;;5015457;28;20114;-61
2022/03/05 12:58:40;;;;;;;4.03;3.17;;;6.80;99.90;;;;;;5022099;28;20038;-61
2022/03/05 13:01:09;;;;;;;7.30;2.80;;;6.80;99.90;;;;;;5015307;28;20030;-62
2022/03/05 13:03:37;;;;;;;2.60;2.35;;;6.80;99.90;;;;;;5014895;28;20049;-60